sensor_id;sensor_type;location;lat;lon;timestamp;P1;durP1;ratioP1;P2;durP2;ratioP2
47219;SDS011;32961;51.936;4.788;2023-09-30T00:01:28;13.48;;;5.50;;
47219;SDS011;32961;51.936;4.788;2023-09-30T00:03:56;13.63;;;5.85;;
47219;SDS011;32961;51.936;4.788;2023-09-30T00:06:25;15.80;;;6.28;;
47219;SDS011;32961;51.936;4.788;2023-09-30T00:08:53;15.75;;;6.15;;
47219;SDS011;32961;51.936;4.788;2023-09-30T00:11:20;13.43;;;5.00;;
47219;SDS011;32961;51.936;4.788;2023-09-30T00:13:48;17.85;;;5.75;;
47219;SDS011;32961;51.936;4.788;2023-09-30T00:16:16;12.10;;;5.30;;
47219;SDS011;32961;51.936;4.788;2023-09-30T00:18:46;15.23;;;6.05;;
47219;SDS011;32961;51.936;4.788;2023-09-30T00:21:14;12.90;;;5.13;;
47219;SDS011;32961;51.936;4.788;2023-09-30T00:23:42;10.25;;;5.60;;
47219;SDS011;32961;51.936;4.788;2023-09-30T00:26:10;17.30;;;7.75;;
47219;SDS011;32961;51.936;4.788;2023-09-30T00:28:37;16.73;;;6.68;;
47219;SDS011;32961;51.936;4.788;2023-09-30T00:31:06;16.60;;;6.43;;
47219;SDS011;32961;51.936;4.788;2023-09-30T00:33:37;14.98;;;5.80;;
47219;SDS011;32961;51.936;4.788;2023-09-30T00:36:07;18.05;;;6.68;;
47219;SDS011;32961;51.936;4.788;2023-09-30T00:38:36;16.55;;;6.97;;
47219;SDS011;32961;51.936;4.788;2023-09-30T00:41:04;13.48;;;6.35;;
47219;SDS011;32961;51.936;4.788;2023-09-30T00:43:33;14.63;;;6.45;;
47219;SDS011;32961;51.936;4.788;2023-09-30T00:46:02;18.08;;;6.68;;
47219;SDS011;32961;51.936;4.788;2023-09-30T00:48:33;17.98;;;7.25;;
47219;SDS011;32961;51.936;4.788;2023-09-30T00:51:02;16.65;;;7.28;;
47219;SDS011;32961;51.936;4.788;2023-09-30T00:53:32;17.05;;;7.72;;
47219;SDS011;32961;51.936;4.788;2023-09-30T00:56:00;19.92;;;6.70;;
47219;SDS011;32961;51.936;4.788;2023-09-30T00:58:28;12.93;;;6.57;;
47219;SDS011;32961;51.936;4.788;2023-09-30T01:00:57;11.68;;;6.35;;
47219;SDS011;32961;51.936;4.788;2023-09-30T01:03:27;20.38;;;7.90;;
47219;SDS011;32961;51.936;4.788;2023-09-30T01:05:57;17.20;;;6.93;;
47219;SDS011;32961;51.936;4.788;2023-09-30T01:08:25;14.88;;;7.05;;
47219;SDS011;32961;51.936;4.788;2023-09-30T01:10:55;20.08;;;7.28;;
47219;SDS011;32961;51.936;4.788;2023-09-30T01:13:23;13.25;;;7.40;;
47219;SDS011;32961;51.936;4.788;2023-09-30T01:15:51;22.45;;;8.57;;
47219;SDS011;32961;51.936;4.788;2023-09-30T01:18:18;17.75;;;7.40;;
47219;SDS011;32961;51.936;4.788;2023-09-30T01:20:46;22.25;;;8.00;;
47219;SDS011;32961;51.936;4.788;2023-09-30T01:23:16;20.35;;;7.90;;
47219;SDS011;32961;51.936;4.788;2023-09-30T01:25:45;15.25;;;7.25;;
47219;SDS011;32961;51.936;4.788;2023-09-30T01:28:13;17.27;;;7.68;;
47219;SDS011;32961;51.936;4.788;2023-09-30T01:30:42;14.10;;;6.85;;
47219;SDS011;32961;51.936;4.788;2023-09-30T01:33:11;19.55;;;8.02;;
47219;SDS011;32961;51.936;4.788;2023-09-30T01:35:39;17.55;;;7.40;;
47219;SDS011;32961;51.936;4.788;2023-09-30T01:38:06;17.98;;;7.43;;
47219;SDS011;32961;51.936;4.788;2023-09-30T01:40:36;15.77;;;8.23;;
47219;SDS011;32961;51.936;4.788;2023-09-30T01:43:03;14.07;;;6.85;;
47219;SDS011;32961;51.936;4.788;2023-09-30T01:45:31;21.95;;;8.18;;
47219;SDS011;32961;51.936;4.788;2023-09-30T01:47:59;16.20;;;7.03;;
47219;SDS011;32961;51.936;4.788;2023-09-30T01:50:27;18.77;;;7.47;;
47219;SDS011;32961;51.936;4.788;2023-09-30T01:52:55;22.77;;;8.85;;
47219;SDS011;32961;51.936;4.788;2023-09-30T01:55:22;16.05;;;7.18;;
47219;SDS011;32961;51.936;4.788;2023-09-30T01:57:52;20.85;;;7.55;;
47219;SDS011;32961;51.936;4.788;2023-09-30T02:00:19;17.33;;;8.10;;
47219;SDS011;32961;51.936;4.788;2023-09-30T02:02:47;17.17;;;7.70;;
47219;SDS011;32961;51.936;4.788;2023-09-30T02:05:15;17.70;;;7.78;;
47219;SDS011;32961;51.936;4.788;2023-09-30T02:07:43;18.85;;;7.57;;
47219;SDS011;32961;51.936;4.788;2023-09-30T02:10:11;16.00;;;7.18;;
47219;SDS011;32961;51.936;4.788;2023-09-30T02:12:39;14.43;;;7.82;;
47219;SDS011;32961;51.936;4.788;2023-09-30T02:15:09;16.95;;;7.43;;
47219;SDS011;32961;51.936;4.788;2023-09-30T02:17:37;22.13;;;8.73;;
47219;SDS011;32961;51.936;4.788;2023-09-30T02:20:06;14.82;;;7.78;;
47219;SDS011;32961;51.936;4.788;2023-09-30T02:22:39;17.05;;;8.07;;
47219;SDS011;32961;51.936;4.788;2023-09-30T02:25:07;21.65;;;8.80;;
47219;SDS011;32961;51.936;4.788;2023-09-30T02:27:35;19.70;;;7.78;;
47219;SDS011;32961;51.936;4.788;2023-09-30T02:30:03;18.83;;;8.13;;
47219;SDS011;32961;51.936;4.788;2023-09-30T02:32:33;20.25;;;8.70;;
47219;SDS011;32961;51.936;4.788;2023-09-30T02:35:01;17.40;;;8.98;;
47219;SDS011;32961;51.936;4.788;2023-09-30T02:37:31;26.70;;;9.38;;
47219;SDS011;32961;51.936;4.788;2023-09-30T02:40:02;19.48;;;8.82;;
47219;SDS011;32961;51.936;4.788;2023-09-30T02:42:35;21.23;;;8.75;;
47219;SDS011;32961;51.936;4.788;2023-09-30T02:45:04;17.45;;;8.60;;
47219;SDS011;32961;51.936;4.788;2023-09-30T02:47:36;16.73;;;8.40;;
47219;SDS011;32961;51.936;4.788;2023-09-30T02:50:06;16.98;;;8.13;;
47219;SDS011;32961;51.936;4.788;2023-09-30T02:52:38;17.45;;;8.30;;
47219;SDS011;32961;51.936;4.788;2023-09-30T02:55:07;21.02;;;10.57;;
47219;SDS011;32961;51.936;4.788;2023-09-30T02:57:36;21.55;;;10.18;;
47219;SDS011;32961;51.936;4.788;2023-09-30T03:00:05;16.75;;;9.27;;
47219;SDS011;32961;51.936;4.788;2023-09-30T03:02:48;22.45;;;9.05;;
47219;SDS011;32961;51.936;4.788;2023-09-30T03:05:17;21.25;;;10.52;;
47219;SDS011;32961;51.936;4.788;2023-09-30T03:07:46;19.10;;;9.82;;
47219;SDS011;32961;51.936;4.788;2023-09-30T03:10:16;22.77;;;9.15;;
47219;SDS011;32961;51.936;4.788;2023-09-30T03:12:47;19.55;;;9.77;;
47219;SDS011;32961;51.936;4.788;2023-09-30T03:15:15;17.30;;;9.30;;
47219;SDS011;32961;51.936;4.788;2023-09-30T03:17:43;17.98;;;9.10;;
47219;SDS011;32961;51.936;4.788;2023-09-30T03:20:12;22.52;;;8.90;;
47219;SDS011;32961;51.936;4.788;2023-09-30T03:22:40;24.70;;;9.25;;
47219;SDS011;32961;51.936;4.788;2023-09-30T03:25:10;23.35;;;9.23;;
47219;SDS011;32961;51.936;4.788;2023-09-30T03:27:38;18.65;;;10.23;;
47219;SDS011;32961;51.936;4.788;2023-09-30T03:30:08;26.40;;;10.13;;
47219;SDS011;32961;51.936;4.788;2023-09-30T03:32:38;17.55;;;8.88;;
47219;SDS011;32961;51.936;4.788;2023-09-30T03:35:06;16.65;;;8.73;;
47219;SDS011;32961;51.936;4.788;2023-09-30T03:37:38;14.95;;;8.18;;
47219;SDS011;32961;51.936;4.788;2023-09-30T03:40:07;19.67;;;10.05;;
47219;SDS011;32961;51.936;4.788;2023-09-30T03:42:40;17.20;;;7.72;;
47219;SDS011;32961;51.936;4.788;2023-09-30T03:45:10;15.85;;;7.95;;
47219;SDS011;32961;51.936;4.788;2023-09-30T03:47:40;16.35;;;8.20;;
47219;SDS011;32961;51.936;4.788;2023-09-30T03:50:10;21.83;;;8.50;;
47219;SDS011;32961;51.936;4.788;2023-09-30T03:52:42;14.82;;;7.97;;
47219;SDS011;32961;51.936;4.788;2023-09-30T03:55:13;14.68;;;7.75;;
47219;SDS011;32961;51.936;4.788;2023-09-30T03:57:45;16.27;;;8.43;;
47219;SDS011;32961;51.936;4.788;2023-09-30T04:00:15;17.45;;;8.20;;
47219;SDS011;32961;51.936;4.788;2023-09-30T04:02:47;15.50;;;7.68;;
47219;SDS011;32961;51.936;4.788;2023-09-30T04:05:17;17.55;;;8.32;;
47219;SDS011;32961;51.936;4.788;2023-09-30T04:07:47;19.25;;;9.75;;
47219;SDS011;32961;51.936;4.788;2023-09-30T04:10:15;15.43;;;8.23;;
47219;SDS011;32961;51.936;4.788;2023-09-30T04:12:47;16.73;;;8.25;;
47219;SDS011;32961;51.936;4.788;2023-09-30T04:15:15;20.38;;;9.10;;
47219;SDS011;32961;51.936;4.788;2023-09-30T04:17:43;18.67;;;9.10;;
47219;SDS011;32961;51.936;4.788;2023-09-30T04:20:11;25.50;;;10.57;;
47219;SDS011;32961;51.936;4.788;2023-09-30T04:22:44;20.27;;;9.98;;
47219;SDS011;32961;51.936;4.788;2023-09-30T04:25:17;21.38;;;10.55;;
47219;SDS011;32961;51.936;4.788;2023-09-30T04:27:45;26.17;;;11.68;;
47219;SDS011;32961;51.936;4.788;2023-09-30T04:30:15;21.05;;;11.35;;
47219;SDS011;32961;51.936;4.788;2023-09-30T04:32:44;22.67;;;11.13;;
47219;SDS011;32961;51.936;4.788;2023-09-30T04:35:12;28.52;;;12.82;;
47219;SDS011;32961;51.936;4.788;2023-09-30T04:37:41;19.60;;;10.88;;
47219;SDS011;32961;51.936;4.788;2023-09-30T04:40:10;23.00;;;11.68;;
47219;SDS011;32961;51.936;4.788;2023-09-30T04:42:44;21.90;;;11.93;;
47219;SDS011;32961;51.936;4.788;2023-09-30T04:45:13;22.85;;;12.25;;
47219;SDS011;32961;51.936;4.788;2023-09-30T04:47:43;25.55;;;12.68;;
47219;SDS011;32961;51.936;4.788;2023-09-30T04:50:11;23.02;;;13.43;;
47219;SDS011;32961;51.936;4.788;2023-09-30T04:52:44;20.13;;;12.00;;
47219;SDS011;32961;51.936;4.788;2023-09-30T04:55:13;28.23;;;12.82;;
47219;SDS011;32961;51.936;4.788;2023-09-30T04:57:44;30.95;;;12.18;;
47219;SDS011;32961;51.936;4.788;2023-09-30T05:00:14;23.10;;;12.40;;
47219;SDS011;32961;51.936;4.788;2023-09-30T05:02:44;28.23;;;12.90;;
47219;SDS011;32961;51.936;4.788;2023-09-30T05:05:13;22.75;;;12.32;;
47219;SDS011;32961;51.936;4.788;2023-09-30T05:07:42;25.48;;;12.40;;
47219;SDS011;32961;51.936;4.788;2023-09-30T05:10:10;27.42;;;13.38;;
47219;SDS011;32961;51.936;4.788;2023-09-30T05:12:40;24.13;;;12.02;;
47219;SDS011;32961;51.936;4.788;2023-09-30T05:15:14;20.00;;;12.48;;
47219;SDS011;32961;51.936;4.788;2023-09-30T05:17:43;32.25;;;14.27;;
47219;SDS011;32961;51.936;4.788;2023-09-30T05:20:12;24.30;;;12.95;;
47219;SDS011;32961;51.936;4.788;2023-09-30T05:22:40;22.40;;;12.90;;
47219;SDS011;32961;51.936;4.788;2023-09-30T05:25:11;26.48;;;12.48;;
47219;SDS011;32961;51.936;4.788;2023-09-30T05:27:40;27.10;;;15.93;;
47219;SDS011;32961;51.936;4.788;2023-09-30T05:30:08;26.23;;;16.73;;
47219;SDS011;32961;51.936;4.788;2023-09-30T05:32:38;26.15;;;16.15;;
47219;SDS011;32961;51.936;4.788;2023-09-30T05:35:06;27.88;;;13.63;;
47219;SDS011;32961;51.936;4.788;2023-09-30T05:37:39;19.95;;;11.77;;
47219;SDS011;32961;51.936;4.788;2023-09-30T05:40:07;21.05;;;12.57;;
47219;SDS011;32961;51.936;4.788;2023-09-30T05:42:43;29.25;;;15.27;;
47219;SDS011;32961;51.936;4.788;2023-09-30T05:45:11;24.98;;;15.10;;
47219;SDS011;32961;51.936;4.788;2023-09-30T05:47:41;21.35;;;12.75;;
47219;SDS011;32961;51.936;4.788;2023-09-30T05:50:10;16.33;;;10.82;;
47219;SDS011;32961;51.936;4.788;2023-09-30T05:52:42;21.88;;;11.27;;
47219;SDS011;32961;51.936;4.788;2023-09-30T05:55:11;20.73;;;11.55;;
47219;SDS011;32961;51.936;4.788;2023-09-30T05:57:39;25.40;;;13.13;;
47219;SDS011;32961;51.936;4.788;2023-09-30T06:00:07;27.92;;;12.43;;
47219;SDS011;32961;51.936;4.788;2023-09-30T06:02:42;22.33;;;11.43;;
47219;SDS011;32961;51.936;4.788;2023-09-30T06:05:10;22.15;;;11.73;;
47219;SDS011;32961;51.936;4.788;2023-09-30T06:07:38;26.17;;;11.10;;
47219;SDS011;32961;51.936;4.788;2023-09-30T06:10:08;27.92;;;11.73;;
47219;SDS011;32961;51.936;4.788;2023-09-30T06:12:36;19.48;;;10.93;;
47219;SDS011;32961;51.936;4.788;2023-09-30T06:15:04;24.73;;;12.48;;
47219;SDS011;32961;51.936;4.788;2023-09-30T06:17:33;22.08;;;11.70;;
47219;SDS011;32961;51.936;4.788;2023-09-30T06:20:05;24.80;;;12.80;;
47219;SDS011;32961;51.936;4.788;2023-09-30T06:22:36;31.38;;;17.20;;
47219;SDS011;32961;51.936;4.788;2023-09-30T06:25:04;28.77;;;12.65;;
47219;SDS011;32961;51.936;4.788;2023-09-30T06:27:32;27.83;;;14.00;;
47219;SDS011;32961;51.936;4.788;2023-09-30T06:30:00;29.17;;;12.52;;
47219;SDS011;32961;51.936;4.788;2023-09-30T06:32:28;25.25;;;12.80;;
47219;SDS011;32961;51.936;4.788;2023-09-30T06:34:56;23.98;;;13.77;;
47219;SDS011;32961;51.936;4.788;2023-09-30T06:37:26;34.63;;;14.23;;
47219;SDS011;32961;51.936;4.788;2023-09-30T06:39:55;30.33;;;14.90;;
47219;SDS011;32961;51.936;4.788;2023-09-30T06:42:24;29.67;;;13.25;;
47219;SDS011;32961;51.936;4.788;2023-09-30T06:44:52;31.63;;;13.32;;
47219;SDS011;32961;51.936;4.788;2023-09-30T06:47:20;26.27;;;12.55;;
47219;SDS011;32961;51.936;4.788;2023-09-30T06:49:48;23.70;;;12.95;;
47219;SDS011;32961;51.936;4.788;2023-09-30T06:52:16;23.63;;;13.65;;
47219;SDS011;32961;51.936;4.788;2023-09-30T06:54:45;26.98;;;12.65;;
47219;SDS011;32961;51.936;4.788;2023-09-30T06:57:13;29.73;;;16.45;;
47219;SDS011;32961;51.936;4.788;2023-09-30T06:59:41;32.50;;;15.32;;
47219;SDS011;32961;51.936;4.788;2023-09-30T07:02:09;27.40;;;13.45;;
47219;SDS011;32961;51.936;4.788;2023-09-30T07:04:38;24.55;;;13.50;;
47219;SDS011;32961;51.936;4.788;2023-09-30T07:07:06;26.85;;;12.65;;
47219;SDS011;32961;51.936;4.788;2023-09-30T07:09:33;24.67;;;13.05;;
47219;SDS011;32961;51.936;4.788;2023-09-30T07:12:04;23.48;;;13.18;;
47219;SDS011;32961;51.936;4.788;2023-09-30T07:14:32;27.92;;;14.40;;
47219;SDS011;32961;51.936;4.788;2023-09-30T07:17:00;28.73;;;15.27;;
47219;SDS011;32961;51.936;4.788;2023-09-30T07:19:31;31.17;;;13.68;;
47219;SDS011;32961;51.936;4.788;2023-09-30T07:21:58;28.67;;;13.20;;
47219;SDS011;32961;51.936;4.788;2023-09-30T07:24:30;27.13;;;13.98;;
47219;SDS011;32961;51.936;4.788;2023-09-30T07:26:58;25.38;;;12.82;;
47219;SDS011;32961;51.936;4.788;2023-09-30T07:29:29;31.17;;;14.88;;
47219;SDS011;32961;51.936;4.788;2023-09-30T07:31:57;25.13;;;14.25;;
47219;SDS011;32961;51.936;4.788;2023-09-30T07:34:25;26.35;;;14.43;;
47219;SDS011;32961;51.936;4.788;2023-09-30T07:36:53;26.80;;;14.38;;
47219;SDS011;32961;51.936;4.788;2023-09-30T07:39:22;27.85;;;14.27;;
47219;SDS011;32961;51.936;4.788;2023-09-30T07:41:50;30.30;;;14.02;;
47219;SDS011;32961;51.936;4.788;2023-09-30T07:44:17;28.02;;;12.35;;
47219;SDS011;32961;51.936;4.788;2023-09-30T07:46:47;25.85;;;12.98;;
47219;SDS011;32961;51.936;4.788;2023-09-30T07:49:14;23.88;;;12.88;;
47219;SDS011;32961;51.936;4.788;2023-09-30T07:51:42;31.83;;;11.60;;
47219;SDS011;32961;51.936;4.788;2023-09-30T07:54:10;27.20;;;13.10;;
47219;SDS011;32961;51.936;4.788;2023-09-30T07:56:56;23.05;;;11.90;;
47219;SDS011;32961;51.936;4.788;2023-09-30T07:59:25;23.95;;;12.43;;
47219;SDS011;32961;51.936;4.788;2023-09-30T08:01:54;19.15;;;10.35;;
47219;SDS011;32961;51.936;4.788;2023-09-30T08:04:23;24.55;;;12.15;;
47219;SDS011;32961;51.936;4.788;2023-09-30T08:06:51;20.60;;;11.50;;
47219;SDS011;32961;51.936;4.788;2023-09-30T08:09:19;22.05;;;11.43;;
47219;SDS011;32961;51.936;4.788;2023-09-30T08:11:50;21.52;;;9.98;;
47219;SDS011;32961;51.936;4.788;2023-09-30T08:14:20;17.25;;;11.20;;
47219;SDS011;32961;51.936;4.788;2023-09-30T08:16:47;23.98;;;9.60;;
47219;SDS011;32961;51.936;4.788;2023-09-30T08:19:18;24.40;;;9.80;;
47219;SDS011;32961;51.936;4.788;2023-09-30T08:21:47;19.60;;;9.15;;
47219;SDS011;32961;51.936;4.788;2023-09-30T08:24:15;22.80;;;9.77;;
47219;SDS011;32961;51.936;4.788;2023-09-30T08:26:44;20.63;;;9.82;;
47219;SDS011;32961;51.936;4.788;2023-09-30T08:29:11;21.55;;;9.55;;
47219;SDS011;32961;51.936;4.788;2023-09-30T08:31:40;20.88;;;9.15;;
47219;SDS011;32961;51.936;4.788;2023-09-30T08:34:08;15.55;;;8.88;;
47219;SDS011;32961;51.936;4.788;2023-09-30T08:36:37;20.80;;;8.57;;
47219;SDS011;32961;51.936;4.788;2023-09-30T08:39:05;17.38;;;8.40;;
47219;SDS011;32961;51.936;4.788;2023-09-30T08:41:33;20.88;;;9.02;;
47219;SDS011;32961;51.936;4.788;2023-09-30T08:44:02;27.15;;;12.93;;
47219;SDS011;32961;51.936;4.788;2023-09-30T08:46:32;23.30;;;9.10;;
47219;SDS011;32961;51.936;4.788;2023-09-30T08:49:02;16.52;;;8.48;;
47219;SDS011;32961;51.936;4.788;2023-09-30T08:51:31;17.75;;;8.07;;
47219;SDS011;32961;51.936;4.788;2023-09-30T08:54:02;19.65;;;8.50;;
47219;SDS011;32961;51.936;4.788;2023-09-30T08:56:33;19.42;;;9.18;;
47219;SDS011;32961;51.936;4.788;2023-09-30T08:59:02;18.17;;;8.43;;
47219;SDS011;32961;51.936;4.788;2023-09-30T09:01:31;15.85;;;8.77;;
47219;SDS011;32961;51.936;4.788;2023-09-30T09:03:59;16.95;;;7.63;;
47219;SDS011;32961;51.936;4.788;2023-09-30T09:06:30;14.93;;;7.53;;
47219;SDS011;32961;51.936;4.788;2023-09-30T09:11:53;17.48;;;7.63;;
47219;SDS011;32961;51.936;4.788;2023-09-30T09:14:28;19.42;;;9.77;;
47219;SDS011;32961;51.936;4.788;2023-09-30T09:17:05;16.77;;;8.27;;
47219;SDS011;32961;51.936;4.788;2023-09-30T09:19:34;17.33;;;8.00;;
47219;SDS011;32961;51.936;4.788;2023-09-30T09:22:03;14.63;;;6.85;;
47219;SDS011;32961;51.936;4.788;2023-09-30T09:24:34;19.25;;;7.68;;
47219;SDS011;32961;51.936;4.788;2023-09-30T09:27:07;17.27;;;7.55;;
47219;SDS011;32961;51.936;4.788;2023-09-30T09:29:36;14.82;;;7.38;;
47219;SDS011;32961;51.936;4.788;2023-09-30T09:32:08;19.10;;;7.15;;
47219;SDS011;32961;51.936;4.788;2023-09-30T09:34:37;14.77;;;6.45;;
47219;SDS011;32961;51.936;4.788;2023-09-30T09:37:12;13.70;;;6.32;;
47219;SDS011;32961;51.936;4.788;2023-09-30T09:39:51;18.02;;;5.75;;
47219;SDS011;32961;51.936;4.788;2023-09-30T09:42:25;16.13;;;5.53;;
47219;SDS011;32961;51.936;4.788;2023-09-30T09:44:55;19.33;;;6.53;;
47219;SDS011;32961;51.936;4.788;2023-09-30T09:47:24;24.70;;;6.38;;
47219;SDS011;32961;51.936;4.788;2023-09-30T09:49:53;14.90;;;5.57;;
47219;SDS011;32961;51.936;4.788;2023-09-30T09:52:23;21.58;;;10.02;;
47219;SDS011;32961;51.936;4.788;2023-09-30T09:54:52;18.65;;;7.82;;
47219;SDS011;32961;51.936;4.788;2023-09-30T09:57:21;13.07;;;6.07;;
47219;SDS011;32961;51.936;4.788;2023-09-30T09:59:53;13.55;;;5.28;;
47219;SDS011;32961;51.936;4.788;2023-09-30T10:02:25;15.77;;;5.57;;
47219;SDS011;32961;51.936;4.788;2023-09-30T10:04:55;14.13;;;4.80;;
47219;SDS011;32961;51.936;4.788;2023-09-30T10:07:25;13.80;;;4.75;;
47219;SDS011;32961;51.936;4.788;2023-09-30T10:09:56;17.83;;;6.00;;
47219;SDS011;32961;51.936;4.788;2023-09-30T10:12:27;17.52;;;5.60;;
47219;SDS011;32961;51.936;4.788;2023-09-30T10:18:10;12.90;;;4.95;;
47219;SDS011;32961;51.936;4.788;2023-09-30T10:20:42;15.38;;;4.40;;
47219;SDS011;32961;51.936;4.788;2023-09-30T10:23:22;17.00;;;4.57;;
47219;SDS011;32961;51.936;4.788;2023-09-30T10:25:53;11.00;;;4.57;;
47219;SDS011;32961;51.936;4.788;2023-09-30T10:31:20;12.48;;;4.65;;
47219;SDS011;32961;51.936;4.788;2023-09-30T10:36:48;11.88;;;3.58;;
47219;SDS011;32961;51.936;4.788;2023-09-30T10:48:36;11.63;;;3.60;;
47219;SDS011;32961;51.936;4.788;2023-09-30T10:51:15;18.80;;;4.20;;
47219;SDS011;32961;51.936;4.788;2023-09-30T10:53:48;12.32;;;4.03;;
47219;SDS011;32961;51.936;4.788;2023-09-30T10:56:18;10.05;;;3.78;;
47219;SDS011;32961;51.936;4.788;2023-09-30T10:58:50;10.45;;;3.17;;
47219;SDS011;32961;51.936;4.788;2023-09-30T11:01:23;7.38;;;2.83;;
47219;SDS011;32961;51.936;4.788;2023-09-30T11:03:59;12.43;;;3.67;;
47219;SDS011;32961;51.936;4.788;2023-09-30T11:06:33;9.38;;;3.20;;
47219;SDS011;32961;51.936;4.788;2023-09-30T11:09:02;11.98;;;3.20;;
47219;SDS011;32961;51.936;4.788;2023-09-30T11:11:35;9.45;;;3.58;;
47219;SDS011;32961;51.936;4.788;2023-09-30T11:14:16;13.00;;;3.55;;
47219;SDS011;32961;51.936;4.788;2023-09-30T11:16:45;9.75;;;3.45;;
47219;SDS011;32961;51.936;4.788;2023-09-30T11:19:15;12.07;;;3.40;;
47219;SDS011;32961;51.936;4.788;2023-09-30T11:21:43;12.18;;;3.60;;
47219;SDS011;32961;51.936;4.788;2023-09-30T11:24:11;10.73;;;3.15;;
47219;SDS011;32961;51.936;4.788;2023-09-30T11:26:42;9.55;;;3.33;;
47219;SDS011;32961;51.936;4.788;2023-09-30T11:29:11;11.20;;;3.88;;
47219;SDS011;32961;51.936;4.788;2023-09-30T11:31:40;8.65;;;2.95;;
47219;SDS011;32961;51.936;4.788;2023-09-30T11:34:10;8.43;;;3.30;;
47219;SDS011;32961;51.936;4.788;2023-09-30T11:36:47;10.52;;;2.90;;
47219;SDS011;32961;51.936;4.788;2023-09-30T11:39:21;12.73;;;5.55;;
47219;SDS011;32961;51.936;4.788;2023-09-30T11:41:51;14.00;;;4.97;;
47219;SDS011;32961;51.936;4.788;2023-09-30T11:44:20;14.48;;;3.00;;
47219;SDS011;32961;51.936;4.788;2023-09-30T11:46:49;8.82;;;2.53;;
47219;SDS011;32961;51.936;4.788;2023-09-30T11:49:25;8.48;;;3.08;;
47219;SDS011;32961;51.936;4.788;2023-09-30T11:52:00;12.73;;;3.72;;
47219;SDS011;32961;51.936;4.788;2023-09-30T11:54:29;14.27;;;6.72;;
47219;SDS011;32961;51.936;4.788;2023-09-30T11:57:00;14.98;;;3.40;;
47219;SDS011;32961;51.936;4.788;2023-09-30T11:59:28;10.60;;;2.80;;
47219;SDS011;32961;51.936;4.788;2023-09-30T12:01:56;12.18;;;3.20;;
47219;SDS011;32961;51.936;4.788;2023-09-30T12:04:39;9.63;;;2.60;;
47219;SDS011;32961;51.936;4.788;2023-09-30T12:07:09;11.93;;;3.05;;
47219;SDS011;32961;51.936;4.788;2023-09-30T12:09:37;10.45;;;2.55;;
47219;SDS011;32961;51.936;4.788;2023-09-30T12:12:06;10.48;;;2.97;;
47219;SDS011;32961;51.936;4.788;2023-09-30T12:14:37;9.05;;;3.10;;
47219;SDS011;32961;51.936;4.788;2023-09-30T12:17:05;7.57;;;3.05;;
47219;SDS011;32961;51.936;4.788;2023-09-30T12:19:38;10.30;;;3.85;;
47219;SDS011;32961;51.936;4.788;2023-09-30T12:22:06;10.60;;;3.83;;
47219;SDS011;32961;51.936;4.788;2023-09-30T12:24:38;12.98;;;3.03;;
47219;SDS011;32961;51.936;4.788;2023-09-30T12:27:06;9.82;;;3.20;;
47219;SDS011;32961;51.936;4.788;2023-09-30T12:29:34;11.07;;;3.45;;
47219;SDS011;32961;51.936;4.788;2023-09-30T12:32:05;10.43;;;3.47;;
47219;SDS011;32961;51.936;4.788;2023-09-30T12:34:33;9.80;;;4.05;;
47219;SDS011;32961;51.936;4.788;2023-09-30T12:37:04;19.08;;;8.30;;
47219;SDS011;32961;51.936;4.788;2023-09-30T12:39:32;10.57;;;3.63;;
47219;SDS011;32961;51.936;4.788;2023-09-30T12:42:02;10.90;;;3.08;;
47219;SDS011;32961;51.936;4.788;2023-09-30T12:44:35;10.48;;;3.10;;
47219;SDS011;32961;51.936;4.788;2023-09-30T12:47:04;15.27;;;3.60;;
47219;SDS011;32961;51.936;4.788;2023-09-30T12:49:33;7.38;;;3.15;;
47219;SDS011;32961;51.936;4.788;2023-09-30T12:52:01;12.60;;;3.15;;
47219;SDS011;32961;51.936;4.788;2023-09-30T12:54:28;10.85;;;3.20;;
47219;SDS011;32961;51.936;4.788;2023-09-30T12:56:57;10.93;;;3.67;;
47219;SDS011;32961;51.936;4.788;2023-09-30T12:59:28;12.82;;;3.72;;
47219;SDS011;32961;51.936;4.788;2023-09-30T13:01:57;11.55;;;2.92;;
47219;SDS011;32961;51.936;4.788;2023-09-30T13:04:26;8.63;;;2.95;;
47219;SDS011;32961;51.936;4.788;2023-09-30T13:06:54;12.13;;;2.88;;
47219;SDS011;32961;51.936;4.788;2023-09-30T13:09:22;9.32;;;2.95;;
47219;SDS011;32961;51.936;4.788;2023-09-30T13:11:51;13.63;;;4.20;;
47219;SDS011;32961;51.936;4.788;2023-09-30T13:14:19;14.93;;;4.07;;
47219;SDS011;32961;51.936;4.788;2023-09-30T13:16:48;17.20;;;3.88;;
47219;SDS011;32961;51.936;4.788;2023-09-30T13:19:16;11.13;;;3.55;;
47219;SDS011;32961;51.936;4.788;2023-09-30T13:21:47;13.52;;;3.63;;
47219;SDS011;32961;51.936;4.788;2023-09-30T13:24:15;13.00;;;3.53;;
47219;SDS011;32961;51.936;4.788;2023-09-30T13:26:44;17.95;;;3.80;;
47219;SDS011;32961;51.936;4.788;2023-09-30T13:29:12;9.05;;;3.35;;
47219;SDS011;32961;51.936;4.788;2023-09-30T13:31:41;13.00;;;3.63;;
47219;SDS011;32961;51.936;4.788;2023-09-30T13:34:12;11.95;;;3.00;;
47219;SDS011;32961;51.936;4.788;2023-09-30T13:36:42;12.20;;;3.60;;
47219;SDS011;32961;51.936;4.788;2023-09-30T13:39:10;12.95;;;3.38;;
47219;SDS011;32961;51.936;4.788;2023-09-30T13:41:40;12.23;;;3.83;;
47219;SDS011;32961;51.936;4.788;2023-09-30T13:44:08;11.93;;;3.30;;
47219;SDS011;32961;51.936;4.788;2023-09-30T13:46:37;14.40;;;3.53;;
47219;SDS011;32961;51.936;4.788;2023-09-30T13:49:05;12.57;;;4.07;;
47219;SDS011;32961;51.936;4.788;2023-09-30T13:51:34;12.27;;;4.15;;
47219;SDS011;32961;51.936;4.788;2023-09-30T13:54:05;13.15;;;3.72;;
47219;SDS011;32961;51.936;4.788;2023-09-30T13:56:34;13.18;;;3.35;;
47219;SDS011;32961;51.936;4.788;2023-09-30T13:59:02;9.50;;;3.60;;
47219;SDS011;32961;51.936;4.788;2023-09-30T14:01:30;9.95;;;4.18;;
47219;SDS011;32961;51.936;4.788;2023-09-30T14:03:58;12.63;;;3.65;;
47219;SDS011;32961;51.936;4.788;2023-09-30T14:06:26;11.82;;;3.95;;
47219;SDS011;32961;51.936;4.788;2023-09-30T14:08:57;15.30;;;4.10;;
47219;SDS011;32961;51.936;4.788;2023-09-30T14:11:25;8.65;;;3.28;;
47219;SDS011;32961;51.936;4.788;2023-09-30T14:13:53;12.85;;;4.22;;
47219;SDS011;32961;51.936;4.788;2023-09-30T14:16:21;13.18;;;3.33;;
47219;SDS011;32961;51.936;4.788;2023-09-30T14:18:49;13.50;;;3.90;;
47219;SDS011;32961;51.936;4.788;2023-09-30T14:21:17;12.68;;;3.42;;
47219;SDS011;32961;51.936;4.788;2023-09-30T14:23:45;15.60;;;3.65;;
47219;SDS011;32961;51.936;4.788;2023-09-30T14:26:15;14.30;;;3.47;;
47219;SDS011;32961;51.936;4.788;2023-09-30T14:28:43;12.85;;;3.40;;
47219;SDS011;32961;51.936;4.788;2023-09-30T14:31:11;14.90;;;3.90;;
47219;SDS011;32961;51.936;4.788;2023-09-30T14:33:43;15.35;;;3.70;;
47219;SDS011;32961;51.936;4.788;2023-09-30T14:36:10;17.23;;;4.22;;
47219;SDS011;32961;51.936;4.788;2023-09-30T14:38:38;15.30;;;3.75;;
47219;SDS011;32961;51.936;4.788;2023-09-30T14:41:07;16.58;;;4.13;;
47219;SDS011;32961;51.936;4.788;2023-09-30T14:43:38;13.32;;;3.38;;
47219;SDS011;32961;51.936;4.788;2023-09-30T14:46:06;15.05;;;4.03;;
47219;SDS011;32961;51.936;4.788;2023-09-30T14:48:36;17.77;;;3.65;;
47219;SDS011;32961;51.936;4.788;2023-09-30T14:51:04;15.35;;;4.40;;
47219;SDS011;32961;51.936;4.788;2023-09-30T14:53:32;14.23;;;3.42;;
47219;SDS011;32961;51.936;4.788;2023-09-30T14:56:00;12.30;;;3.20;;
47219;SDS011;32961;51.936;4.788;2023-09-30T14:58:28;15.35;;;3.63;;
47219;SDS011;32961;51.936;4.788;2023-09-30T15:00:57;12.60;;;3.45;;
47219;SDS011;32961;51.936;4.788;2023-09-30T15:03:25;14.10;;;3.55;;
47219;SDS011;32961;51.936;4.788;2023-09-30T15:05:57;17.90;;;4.07;;